Royal Oaks, North Carolina
Current Conditions -  °F | °C
As of 6:55 PM on Sunday 23 Nov 2014 (Local Time) from KJQF Reporting Station
Moderate Rain Moderate Rain  
Wind Chill: 57°   Ceiling: 500
Heat Index: 57°   Visibility: 3mi
Dew Point: 57°   Wind: 7mph
Humidity: 100%   Direction: 140°SE
Pressure: 29.85"   Gusts: 20mph
Location:  35.5043°N, 80.6706°W
Report Text: KJQF 232355Z 14006G17KT 3SM RA BR OVC005 14/14 A2985
Loading
Personal Weather Stations






























Interactive Weather Map New forecast layout! Learn more

10-Day Weather Forecast

Advertisements
Track Severe Weather on mobile